sensor_id;sensor_type;location;lat;lon;timestamp;P1;durP1;ratioP1;P2;durP2;ratioP2
67074;SDS011;53990;50.334;18.640;2023-07-28T00:01:58;5.00;;;3.20;;
67074;SDS011;53990;50.334;18.640;2023-07-28T00:04:28;5.30;;;2.90;;
67074;SDS011;53990;50.334;18.640;2023-07-28T00:06:55;5.60;;;3.00;;
67074;SDS011;53990;50.334;18.640;2023-07-28T00:09:22;4.80;;;3.00;;
67074;SDS011;53990;50.334;18.640;2023-07-28T00:11:49;5.10;;;2.60;;
67074;SDS011;53990;50.334;18.640;2023-07-28T00:14:16;5.80;;;2.80;;
67074;SDS011;53990;50.334;18.640;2023-07-28T00:16:43;4.80;;;2.90;;
67074;SDS011;53990;50.334;18.640;2023-07-28T00:19:09;5.60;;;3.10;;
67074;SDS011;53990;50.334;18.640;2023-07-28T00:21:36;5.80;;;2.90;;
67074;SDS011;53990;50.334;18.640;2023-07-28T00:24:03;5.30;;;3.10;;
67074;SDS011;53990;50.334;18.640;2023-07-28T00:26:30;5.10;;;2.90;;
67074;SDS011;53990;50.334;18.640;2023-07-28T00:28:57;4.00;;;3.00;;
67074;SDS011;53990;50.334;18.640;2023-07-28T00:31:25;4.50;;;2.90;;
67074;SDS011;53990;50.334;18.640;2023-07-28T00:33:52;5.90;;;2.80;;
67074;SDS011;53990;50.334;18.640;2023-07-28T00:36:19;6.10;;;2.60;;
67074;SDS011;53990;50.334;18.640;2023-07-28T00:38:45;6.10;;;2.90;;
67074;SDS011;53990;50.334;18.640;2023-07-28T00:41:12;4.90;;;2.70;;
67074;SDS011;53990;50.334;18.640;2023-07-28T00:43:39;5.00;;;2.80;;
67074;SDS011;53990;50.334;18.640;2023-07-28T00:46:06;5.10;;;2.70;;
67074;SDS011;53990;50.334;18.640;2023-07-28T00:48:33;5.00;;;2.90;;
67074;SDS011;53990;50.334;18.640;2023-07-28T00:51:00;6.00;;;2.80;;
67074;SDS011;53990;50.334;18.640;2023-07-28T00:53:27;3.70;;;2.50;;
67074;SDS011;53990;50.334;18.640;2023-07-28T00:55:55;5.40;;;2.80;;
67074;SDS011;53990;50.334;18.640;2023-07-28T00:58:22;4.20;;;2.70;;
67074;SDS011;53990;50.334;18.640;2023-07-28T01:00:49;6.60;;;3.10;;
67074;SDS011;53990;50.334;18.640;2023-07-28T01:03:18;5.00;;;2.60;;
67074;SDS011;53990;50.334;18.640;2023-07-28T01:09:09;5.70;;;3.10;;
67074;SDS011;53990;50.334;18.640;2023-07-28T01:11:37;5.60;;;2.80;;
67074;SDS011;53990;50.334;18.640;2023-07-28T01:14:04;5.30;;;2.90;;
67074;SDS011;53990;50.334;18.640;2023-07-28T01:16:30;6.20;;;2.90;;
67074;SDS011;53990;50.334;18.640;2023-07-28T01:18:57;6.30;;;2.90;;
67074;SDS011;53990;50.334;18.640;2023-07-28T01:21:26;4.90;;;2.60;;
67074;SDS011;53990;50.334;18.640;2023-07-28T01:26:35;5.00;;;2.70;;
67074;SDS011;53990;50.334;18.640;2023-07-28T01:29:03;5.30;;;2.60;;
67074;SDS011;53990;50.334;18.640;2023-07-28T01:31:30;3.90;;;2.50;;
67074;SDS011;53990;50.334;18.640;2023-07-28T01:33:57;4.60;;;2.50;;
67074;SDS011;53990;50.334;18.640;2023-07-28T01:36:24;5.40;;;2.90;;
67074;SDS011;53990;50.334;18.640;2023-07-28T01:38:51;4.40;;;2.80;;
67074;SDS011;53990;50.334;18.640;2023-07-28T01:41:17;3.50;;;2.30;;
67074;SDS011;53990;50.334;18.640;2023-07-28T01:43:44;4.40;;;3.00;;
67074;SDS011;53990;50.334;18.640;2023-07-28T01:46:11;5.10;;;2.40;;
67074;SDS011;53990;50.334;18.640;2023-07-28T01:48:38;4.50;;;2.70;;
67074;SDS011;53990;50.334;18.640;2023-07-28T01:51:04;4.80;;;2.70;;
67074;SDS011;53990;50.334;18.640;2023-07-28T01:53:31;5.70;;;2.80;;
67074;SDS011;53990;50.334;18.640;2023-07-28T01:55:58;6.00;;;3.00;;
67074;SDS011;53990;50.334;18.640;2023-07-28T01:58:24;4.40;;;2.50;;
67074;SDS011;53990;50.334;18.640;2023-07-28T02:00:51;3.90;;;2.60;;
67074;SDS011;53990;50.334;18.640;2023-07-28T02:03:18;4.80;;;2.70;;
67074;SDS011;53990;50.334;18.640;2023-07-28T02:05:44;5.40;;;2.80;;
67074;SDS011;53990;50.334;18.640;2023-07-28T02:08:11;4.90;;;3.30;;
67074;SDS011;53990;50.334;18.640;2023-07-28T02:10:38;4.70;;;2.90;;
67074;SDS011;53990;50.334;18.640;2023-07-28T02:13:04;4.20;;;2.80;;
67074;SDS011;53990;50.334;18.640;2023-07-28T02:15:31;4.40;;;2.60;;
67074;SDS011;53990;50.334;18.640;2023-07-28T02:17:58;5.20;;;2.60;;
67074;SDS011;53990;50.334;18.640;2023-07-28T02:20:24;5.10;;;2.90;;
67074;SDS011;53990;50.334;18.640;2023-07-28T02:22:51;4.50;;;2.70;;
67074;SDS011;53990;50.334;18.640;2023-07-28T02:25:18;6.50;;;2.80;;
67074;SDS011;53990;50.334;18.640;2023-07-28T02:27:44;4.50;;;2.90;;
67074;SDS011;53990;50.334;18.640;2023-07-28T02:30:11;5.10;;;2.80;;
67074;SDS011;53990;50.334;18.640;2023-07-28T02:32:38;5.90;;;2.80;;
67074;SDS011;53990;50.334;18.640;2023-07-28T02:35:05;3.90;;;2.50;;
67074;SDS011;53990;50.334;18.640;2023-07-28T02:37:31;4.90;;;2.50;;
67074;SDS011;53990;50.334;18.640;2023-07-28T02:39:58;10.00;;;2.90;;
67074;SDS011;53990;50.334;18.640;2023-07-28T02:42:25;4.30;;;2.60;;
67074;SDS011;53990;50.334;18.640;2023-07-28T02:44:52;5.10;;;3.00;;
67074;SDS011;53990;50.334;18.640;2023-07-28T02:47:19;6.00;;;3.20;;
67074;SDS011;53990;50.334;18.640;2023-07-28T02:49:45;5.10;;;3.40;;
67074;SDS011;53990;50.334;18.640;2023-07-28T02:52:12;5.30;;;3.30;;
67074;SDS011;53990;50.334;18.640;2023-07-28T02:54:39;6.10;;;3.40;;
67074;SDS011;53990;50.334;18.640;2023-07-28T02:57:06;6.40;;;3.30;;
67074;SDS011;53990;50.334;18.640;2023-07-28T02:59:32;5.40;;;3.00;;
67074;SDS011;53990;50.334;18.640;2023-07-28T03:01:59;5.70;;;3.80;;
67074;SDS011;53990;50.334;18.640;2023-07-28T03:04:26;5.10;;;3.20;;
67074;SDS011;53990;50.334;18.640;2023-07-28T03:06:52;6.20;;;3.50;;
67074;SDS011;53990;50.334;18.640;2023-07-28T03:09:19;5.60;;;3.10;;
67074;SDS011;53990;50.334;18.640;2023-07-28T03:11:46;5.20;;;3.10;;
67074;SDS011;53990;50.334;18.640;2023-07-28T03:14:12;4.90;;;3.20;;
67074;SDS011;53990;50.334;18.640;2023-07-28T03:16:41;6.70;;;2.90;;
67074;SDS011;53990;50.334;18.640;2023-07-28T03:19:08;5.00;;;2.70;;
67074;SDS011;53990;50.334;18.640;2023-07-28T03:21:35;5.10;;;2.80;;
67074;SDS011;53990;50.334;18.640;2023-07-28T03:24:01;5.70;;;3.20;;
67074;SDS011;53990;50.334;18.640;2023-07-28T03:26:28;4.50;;;2.70;;
67074;SDS011;53990;50.334;18.640;2023-07-28T03:28:55;6.70;;;2.90;;
67074;SDS011;53990;50.334;18.640;2023-07-28T03:31:22;5.70;;;2.80;;
67074;SDS011;53990;50.334;18.640;2023-07-28T03:33:48;5.00;;;2.60;;
67074;SDS011;53990;50.334;18.640;2023-07-28T03:36:15;5.20;;;3.40;;
67074;SDS011;53990;50.334;18.640;2023-07-28T03:38:42;4.30;;;3.00;;
67074;SDS011;53990;50.334;18.640;2023-07-28T03:41:08;4.30;;;2.90;;
67074;SDS011;53990;50.334;18.640;2023-07-28T03:43:35;4.70;;;3.00;;
67074;SDS011;53990;50.334;18.640;2023-07-28T03:46:02;4.40;;;3.00;;
67074;SDS011;53990;50.334;18.640;2023-07-28T03:48:29;7.80;;;3.20;;
67074;SDS011;53990;50.334;18.640;2023-07-28T03:50:56;5.60;;;3.00;;
67074;SDS011;53990;50.334;18.640;2023-07-28T03:53:22;4.60;;;3.10;;
67074;SDS011;53990;50.334;18.640;2023-07-28T03:55:49;6.60;;;3.40;;
67074;SDS011;53990;50.334;18.640;2023-07-28T03:58:16;5.80;;;3.40;;
67074;SDS011;53990;50.334;18.640;2023-07-28T04:00:42;5.00;;;2.80;;
67074;SDS011;53990;50.334;18.640;2023-07-28T04:03:09;4.90;;;2.70;;
67074;SDS011;53990;50.334;18.640;2023-07-28T04:05:36;5.70;;;3.30;;
67074;SDS011;53990;50.334;18.640;2023-07-28T04:08:03;6.60;;;3.00;;
67074;SDS011;53990;50.334;18.640;2023-07-28T04:10:30;4.00;;;2.90;;
67074;SDS011;53990;50.334;18.640;2023-07-28T04:12:57;5.00;;;3.20;;
67074;SDS011;53990;50.334;18.640;2023-07-28T04:15:23;5.60;;;2.80;;
67074;SDS011;53990;50.334;18.640;2023-07-28T04:17:50;4.60;;;2.90;;
67074;SDS011;53990;50.334;18.640;2023-07-28T04:20:17;9.40;;;3.00;;
67074;SDS011;53990;50.334;18.640;2023-07-28T04:22:43;4.70;;;2.90;;
67074;SDS011;53990;50.334;18.640;2023-07-28T04:25:10;5.20;;;3.00;;
67074;SDS011;53990;50.334;18.640;2023-07-28T04:27:37;5.00;;;2.70;;
67074;SDS011;53990;50.334;18.640;2023-07-28T04:30:04;4.50;;;2.90;;
67074;SDS011;53990;50.334;18.640;2023-07-28T04:32:31;5.20;;;3.30;;
67074;SDS011;53990;50.334;18.640;2023-07-28T04:34:58;4.60;;;3.10;;
67074;SDS011;53990;50.334;18.640;2023-07-28T04:37:24;4.50;;;2.90;;
67074;SDS011;53990;50.334;18.640;2023-07-28T04:39:51;4.80;;;3.00;;
67074;SDS011;53990;50.334;18.640;2023-07-28T04:42:18;5.20;;;3.30;;
67074;SDS011;53990;50.334;18.640;2023-07-28T04:44:44;6.90;;;3.60;;
67074;SDS011;53990;50.334;18.640;2023-07-28T04:47:12;5.00;;;3.30;;
67074;SDS011;53990;50.334;18.640;2023-07-28T04:49:39;5.30;;;3.30;;
67074;SDS011;53990;50.334;18.640;2023-07-28T04:52:07;4.60;;;3.20;;
67074;SDS011;53990;50.334;18.640;2023-07-28T04:54:34;5.50;;;3.30;;
67074;SDS011;53990;50.334;18.640;2023-07-28T04:57:01;5.20;;;3.10;;
67074;SDS011;53990;50.334;18.640;2023-07-28T04:59:28;4.30;;;3.00;;
67074;SDS011;53990;50.334;18.640;2023-07-28T05:01:54;6.20;;;3.40;;
67074;SDS011;53990;50.334;18.640;2023-07-28T05:04:21;6.00;;;2.70;;
67074;SDS011;53990;50.334;18.640;2023-07-28T05:06:47;4.90;;;3.40;;
67074;SDS011;53990;50.334;18.640;2023-07-28T05:09:14;5.10;;;3.10;;
67074;SDS011;53990;50.334;18.640;2023-07-28T05:11:41;6.70;;;3.80;;
67074;SDS011;53990;50.334;18.640;2023-07-28T05:14:08;5.20;;;3.50;;
67074;SDS011;53990;50.334;18.640;2023-07-28T05:16:37;5.00;;;3.20;;
67074;SDS011;53990;50.334;18.640;2023-07-28T05:19:07;5.70;;;3.00;;
67074;SDS011;53990;50.334;18.640;2023-07-28T05:21:34;5.90;;;2.90;;
67074;SDS011;53990;50.334;18.640;2023-07-28T05:24:00;6.90;;;4.30;;
67074;SDS011;53990;50.334;18.640;2023-07-28T05:26:27;5.50;;;3.60;;
67074;SDS011;53990;50.334;18.640;2023-07-28T05:28:54;5.60;;;2.90;;
67074;SDS011;53990;50.334;18.640;2023-07-28T05:31:21;5.20;;;3.60;;
67074;SDS011;53990;50.334;18.640;2023-07-28T05:33:47;6.00;;;3.30;;
67074;SDS011;53990;50.334;18.640;2023-07-28T05:36:14;5.80;;;3.60;;
67074;SDS011;53990;50.334;18.640;2023-07-28T05:38:41;6.20;;;3.70;;
67074;SDS011;53990;50.334;18.640;2023-07-28T05:41:07;5.40;;;3.30;;
67074;SDS011;53990;50.334;18.640;2023-07-28T05:43:34;4.90;;;3.30;;
67074;SDS011;53990;50.334;18.640;2023-07-28T05:46:01;8.10;;;3.50;;
67074;SDS011;53990;50.334;18.640;2023-07-28T05:48:28;6.20;;;3.90;;
67074;SDS011;53990;50.334;18.640;2023-07-28T05:50:56;5.60;;;3.70;;
67074;SDS011;53990;50.334;18.640;2023-07-28T05:53:23;5.50;;;3.70;;
67074;SDS011;53990;50.334;18.640;2023-07-28T05:55:50;6.90;;;4.30;;
67074;SDS011;53990;50.334;18.640;2023-07-28T05:58:16;6.10;;;4.10;;
67074;SDS011;53990;50.334;18.640;2023-07-28T06:00:46;5.90;;;3.60;;
67074;SDS011;53990;50.334;18.640;2023-07-28T06:03:16;5.70;;;3.80;;
67074;SDS011;53990;50.334;18.640;2023-07-28T06:05:43;4.70;;;3.20;;
67074;SDS011;53990;50.334;18.640;2023-07-28T06:08:09;5.40;;;3.40;;
67074;SDS011;53990;50.334;18.640;2023-07-28T06:10:37;6.30;;;3.60;;
67074;SDS011;53990;50.334;18.640;2023-07-28T06:13:03;5.90;;;3.70;;
67074;SDS011;53990;50.334;18.640;2023-07-28T06:15:30;6.20;;;3.70;;
67074;SDS011;53990;50.334;18.640;2023-07-28T06:17:57;5.10;;;3.20;;
67074;SDS011;53990;50.334;18.640;2023-07-28T06:20:24;6.00;;;3.60;;
67074;SDS011;53990;50.334;18.640;2023-07-28T06:22:50;8.00;;;3.30;;
67074;SDS011;53990;50.334;18.640;2023-07-28T06:25:17;6.10;;;3.60;;
67074;SDS011;53990;50.334;18.640;2023-07-28T06:27:44;5.30;;;3.50;;
67074;SDS011;53990;50.334;18.640;2023-07-28T06:30:11;5.90;;;3.70;;
67074;SDS011;53990;50.334;18.640;2023-07-28T06:32:39;8.40;;;3.40;;
67074;SDS011;53990;50.334;18.640;2023-07-28T06:35:06;5.80;;;3.90;;
67074;SDS011;53990;50.334;18.640;2023-07-28T06:37:35;6.50;;;3.40;;
67074;SDS011;53990;50.334;18.640;2023-07-28T06:40:04;5.30;;;3.60;;
67074;SDS011;53990;50.334;18.640;2023-07-28T06:42:33;4.70;;;3.50;;
67074;SDS011;53990;50.334;18.640;2023-07-28T06:45:00;8.00;;;5.60;;
67074;SDS011;53990;50.334;18.640;2023-07-28T06:47:28;7.10;;;3.90;;
67074;SDS011;53990;50.334;18.640;2023-07-28T06:49:55;5.50;;;3.50;;
67074;SDS011;53990;50.334;18.640;2023-07-28T06:52:21;5.00;;;3.40;;
67074;SDS011;53990;50.334;18.640;2023-07-28T06:54:48;6.40;;;3.50;;
67074;SDS011;53990;50.334;18.640;2023-07-28T06:57:15;5.20;;;3.70;;
67074;SDS011;53990;50.334;18.640;2023-07-28T06:59:42;6.80;;;3.60;;
67074;SDS011;53990;50.334;18.640;2023-07-28T07:02:09;5.60;;;3.80;;
67074;SDS011;53990;50.334;18.640;2023-07-28T07:04:36;4.70;;;3.00;;
67074;SDS011;53990;50.334;18.640;2023-07-28T07:07:03;5.10;;;3.30;;
67074;SDS011;53990;50.334;18.640;2023-07-28T07:09:29;6.00;;;3.90;;
67074;SDS011;53990;50.334;18.640;2023-07-28T07:11:56;5.00;;;3.70;;
67074;SDS011;53990;50.334;18.640;2023-07-28T07:14:23;6.20;;;3.80;;
67074;SDS011;53990;50.334;18.640;2023-07-28T07:16:49;5.00;;;3.20;;
67074;SDS011;53990;50.334;18.640;2023-07-28T07:19:16;5.60;;;4.00;;
67074;SDS011;53990;50.334;18.640;2023-07-28T07:21:43;4.80;;;3.40;;
67074;SDS011;53990;50.334;18.640;2023-07-28T07:24:11;6.70;;;4.00;;
67074;SDS011;53990;50.334;18.640;2023-07-28T07:26:40;6.90;;;4.40;;
67074;SDS011;53990;50.334;18.640;2023-07-28T07:29:07;5.70;;;3.90;;
67074;SDS011;53990;50.334;18.640;2023-07-28T07:31:35;6.00;;;4.40;;
67074;SDS011;53990;50.334;18.640;2023-07-28T07:34:01;5.60;;;3.90;;
67074;SDS011;53990;50.334;18.640;2023-07-28T07:36:30;6.50;;;4.20;;
67074;SDS011;53990;50.334;18.640;2023-07-28T07:38:57;6.20;;;4.50;;
67074;SDS011;53990;50.334;18.640;2023-07-28T07:41:24;6.10;;;4.50;;
67074;SDS011;53990;50.334;18.640;2023-07-28T07:43:54;6.60;;;4.50;;
67074;SDS011;53990;50.334;18.640;2023-07-28T07:46:21;6.90;;;4.40;;
67074;SDS011;53990;50.334;18.640;2023-07-28T07:48:48;7.60;;;4.80;;
67074;SDS011;53990;50.334;18.640;2023-07-28T07:51:15;8.00;;;5.70;;
67074;SDS011;53990;50.334;18.640;2023-07-28T07:53:41;6.30;;;4.40;;
67074;SDS011;53990;50.334;18.640;2023-07-28T07:56:09;8.20;;;4.30;;
67074;SDS011;53990;50.334;18.640;2023-07-28T07:58:36;7.20;;;4.40;;
67074;SDS011;53990;50.334;18.640;2023-07-28T08:01:03;6.30;;;4.40;;
67074;SDS011;53990;50.334;18.640;2023-07-28T08:03:30;6.60;;;4.10;;
67074;SDS011;53990;50.334;18.640;2023-07-28T08:05:58;6.60;;;4.80;;
67074;SDS011;53990;50.334;18.640;2023-07-28T08:08:25;6.50;;;4.70;;
67074;SDS011;53990;50.334;18.640;2023-07-28T08:10:53;7.70;;;5.00;;
67074;SDS011;53990;50.334;18.640;2023-07-28T08:13:20;7.10;;;4.60;;
67074;SDS011;53990;50.334;18.640;2023-07-28T08:15:48;6.90;;;4.60;;
67074;SDS011;53990;50.334;18.640;2023-07-28T08:18:15;6.50;;;4.10;;
67074;SDS011;53990;50.334;18.640;2023-07-28T08:20:42;7.00;;;4.30;;
67074;SDS011;53990;50.334;18.640;2023-07-28T08:23:09;6.50;;;4.50;;
67074;SDS011;53990;50.334;18.640;2023-07-28T08:25:36;6.90;;;4.30;;
67074;SDS011;53990;50.334;18.640;2023-07-28T08:28:03;6.90;;;4.50;;
67074;SDS011;53990;50.334;18.640;2023-07-28T08:30:30;7.10;;;4.60;;
67074;SDS011;53990;50.334;18.640;2023-07-28T08:32:58;5.70;;;4.20;;
67074;SDS011;53990;50.334;18.640;2023-07-28T08:35:25;6.80;;;4.50;;
67074;SDS011;53990;50.334;18.640;2023-07-28T08:37:52;5.90;;;4.50;;
67074;SDS011;53990;50.334;18.640;2023-07-28T08:40:19;6.70;;;4.50;;
67074;SDS011;53990;50.334;18.640;2023-07-28T08:42:46;6.40;;;4.30;;
67074;SDS011;53990;50.334;18.640;2023-07-28T08:45:13;7.70;;;5.10;;
67074;SDS011;53990;50.334;18.640;2023-07-28T08:47:40;6.10;;;4.70;;
67074;SDS011;53990;50.334;18.640;2023-07-28T08:50:07;7.70;;;4.40;;
67074;SDS011;53990;50.334;18.640;2023-07-28T08:52:34;6.40;;;4.40;;
67074;SDS011;53990;50.334;18.640;2023-07-28T08:55:01;5.60;;;3.90;;
67074;SDS011;53990;50.334;18.640;2023-07-28T08:57:27;7.10;;;4.50;;
67074;SDS011;53990;50.334;18.640;2023-07-28T08:59:55;6.20;;;4.40;;
67074;SDS011;53990;50.334;18.640;2023-07-28T09:02:22;5.90;;;4.00;;
67074;SDS011;53990;50.334;18.640;2023-07-28T09:04:49;6.40;;;4.50;;
67074;SDS011;53990;50.334;18.640;2023-07-28T09:07:16;6.50;;;4.30;;
67074;SDS011;53990;50.334;18.640;2023-07-28T09:09:43;5.80;;;4.50;;
67074;SDS011;53990;50.334;18.640;2023-07-28T09:12:10;6.70;;;4.00;;
67074;SDS011;53990;50.334;18.640;2023-07-28T09:14:38;6.90;;;4.30;;
67074;SDS011;53990;50.334;18.640;2023-07-28T09:17:07;7.10;;;4.60;;
67074;SDS011;53990;50.334;18.640;2023-07-28T09:19:34;6.50;;;4.10;;
67074;SDS011;53990;50.334;18.640;2023-07-28T09:22:01;5.30;;;4.10;;
67074;SDS011;53990;50.334;18.640;2023-07-28T09:24:30;6.00;;;4.30;;
67074;SDS011;53990;50.334;18.640;2023-07-28T09:27:01;4.70;;;3.50;;
67074;SDS011;53990;50.334;18.640;2023-07-28T09:29:28;5.70;;;4.30;;
67074;SDS011;53990;50.334;18.640;2023-07-28T09:32:06;6.30;;;4.20;;
67074;SDS011;53990;50.334;18.640;2023-07-28T09:34:32;5.20;;;3.80;;
67074;SDS011;53990;50.334;18.640;2023-07-28T09:37:04;8.90;;;6.60;;
67074;SDS011;53990;50.334;18.640;2023-07-28T09:39:31;6.10;;;4.90;;
67074;SDS011;53990;50.334;18.640;2023-07-28T09:41:59;6.90;;;4.80;;
67074;SDS011;53990;50.334;18.640;2023-07-28T09:44:27;8.10;;;4.10;;
67074;SDS011;53990;50.334;18.640;2023-07-28T09:46:55;6.10;;;4.30;;
67074;SDS011;53990;50.334;18.640;2023-07-28T09:49:28;8.20;;;5.00;;
67074;SDS011;53990;50.334;18.640;2023-07-28T09:52:00;6.70;;;4.70;;
67074;SDS011;53990;50.334;18.640;2023-07-28T09:54:30;13.70;;;4.70;;
67074;SDS011;53990;50.334;18.640;2023-07-28T09:57:00;6.20;;;4.60;;
67074;SDS011;53990;50.334;18.640;2023-07-28T09:59:32;6.40;;;5.20;;
67074;SDS011;53990;50.334;18.640;2023-07-28T10:01:59;6.00;;;4.60;;
67074;SDS011;53990;50.334;18.640;2023-07-28T10:04:26;6.30;;;5.00;;
67074;SDS011;53990;50.334;18.640;2023-07-28T10:06:54;7.40;;;4.30;;
67074;SDS011;53990;50.334;18.640;2023-07-28T10:09:28;6.50;;;4.50;;
67074;SDS011;53990;50.334;18.640;2023-07-28T10:11:55;7.90;;;4.20;;
67074;SDS011;53990;50.334;18.640;2023-07-28T10:14:35;5.70;;;4.50;;
67074;SDS011;53990;50.334;18.640;2023-07-28T10:17:05;7.40;;;4.60;;
67074;SDS011;53990;50.334;18.640;2023-07-28T10:19:36;6.70;;;4.90;;
67074;SDS011;53990;50.334;18.640;2023-07-28T10:22:08;5.70;;;4.50;;
67074;SDS011;53990;50.334;18.640;2023-07-28T10:24:51;7.00;;;4.90;;
67074;SDS011;53990;50.334;18.640;2023-07-28T10:27:29;7.50;;;4.90;;
67074;SDS011;53990;50.334;18.640;2023-07-28T10:29:58;6.20;;;4.40;;
67074;SDS011;53990;50.334;18.640;2023-07-28T10:32:26;5.80;;;4.00;;
67074;SDS011;53990;50.334;18.640;2023-07-28T10:37:39;5.60;;;4.30;;
67074;SDS011;53990;50.334;18.640;2023-07-28T10:40:35;6.00;;;4.50;;
67074;SDS011;53990;50.334;18.640;2023-07-28T10:43:03;7.30;;;3.80;;
67074;SDS011;53990;50.334;18.640;2023-07-28T10:45:32;5.90;;;4.10;;
67074;SDS011;53990;50.334;18.640;2023-07-28T10:47:59;4.60;;;4.00;;
67074;SDS011;53990;50.334;18.640;2023-07-28T10:50:28;4.90;;;3.80;;
67074;SDS011;53990;50.334;18.640;2023-07-28T10:52:56;5.50;;;3.80;;
67074;SDS011;53990;50.334;18.640;2023-07-28T10:55:25;4.50;;;3.30;;
67074;SDS011;53990;50.334;18.640;2023-07-28T10:57:53;6.20;;;3.80;;
67074;SDS011;53990;50.334;18.640;2023-07-28T11:00:21;8.50;;;3.80;;
67074;SDS011;53990;50.334;18.640;2023-07-28T11:02:51;5.10;;;3.70;;
67074;SDS011;53990;50.334;18.640;2023-07-28T11:05:22;5.50;;;4.00;;
67074;SDS011;53990;50.334;18.640;2023-07-28T11:07:51;5.70;;;3.30;;
67074;SDS011;53990;50.334;18.640;2023-07-28T11:10:18;5.50;;;3.50;;
67074;SDS011;53990;50.334;18.640;2023-07-28T11:12:46;5.00;;;3.40;;
67074;SDS011;53990;50.334;18.640;2023-07-28T11:15:14;4.60;;;3.30;;
67074;SDS011;53990;50.334;18.640;2023-07-28T11:17:47;5.20;;;2.90;;
67074;SDS011;53990;50.334;18.640;2023-07-28T11:20:19;4.60;;;2.90;;
67074;SDS011;53990;50.334;18.640;2023-07-28T11:22:57;4.00;;;2.80;;
67074;SDS011;53990;50.334;18.640;2023-07-28T11:25:26;4.60;;;2.80;;
67074;SDS011;53990;50.334;18.640;2023-07-28T11:27:53;4.70;;;2.90;;
67074;SDS011;53990;50.334;18.640;2023-07-28T11:30:21;7.10;;;4.10;;
67074;SDS011;53990;50.334;18.640;2023-07-28T11:32:50;3.80;;;2.40;;
67074;SDS011;53990;50.334;18.640;2023-07-28T11:35:19;4.20;;;2.10;;
67074;SDS011;53990;50.334;18.640;2023-07-28T11:37:48;3.00;;;2.30;;
67074;SDS011;53990;50.334;18.640;2023-07-28T11:40:18;3.50;;;2.00;;
67074;SDS011;53990;50.334;18.640;2023-07-28T11:42:51;4.30;;;1.70;;
67074;SDS011;53990;50.334;18.640;2023-07-28T11:45:19;4.10;;;2.00;;
67074;SDS011;53990;50.334;18.640;2023-07-28T11:50:25;3.10;;;1.90;;
67074;SDS011;53990;50.334;18.640;2023-07-28T11:52:52;3.00;;;1.80;;
67074;SDS011;53990;50.334;18.640;2023-07-28T11:55:19;3.00;;;2.00;;
67074;SDS011;53990;50.334;18.640;2023-07-28T11:57:47;2.90;;;1.70;;
67074;SDS011;53990;50.334;18.640;2023-07-28T12:00:14;5.50;;;3.50;;
67074;SDS011;53990;50.334;18.640;2023-07-28T12:02:44;4.40;;;2.10;;
67074;SDS011;53990;50.334;18.640;2023-07-28T12:05:14;4.20;;;2.30;;
67074;SDS011;53990;50.334;18.640;2023-07-28T12:07:47;2.80;;;1.90;;
67074;SDS011;53990;50.334;18.640;2023-07-28T12:10:14;2.50;;;1.70;;
67074;SDS011;53990;50.334;18.640;2023-07-28T12:12:45;5.50;;;2.20;;
67074;SDS011;53990;50.334;18.640;2023-07-28T12:15:20;3.20;;;2.30;;
67074;SDS011;53990;50.334;18.640;2023-07-28T12:18:08;3.00;;;1.80;;
67074;SDS011;53990;50.334;18.640;2023-07-28T12:23:06;3.90;;;1.80;;
67074;SDS011;53990;50.334;18.640;2023-07-28T12:25:33;2.80;;;1.60;;
67074;SDS011;53990;50.334;18.640;2023-07-28T12:28:00;2.40;;;1.40;;
67074;SDS011;53990;50.334;18.640;2023-07-28T12:30:27;4.90;;;2.10;;
67074;SDS011;53990;50.334;18.640;2023-07-28T12:32:54;4.00;;;2.70;;
67074;SDS011;53990;50.334;18.640;2023-07-28T12:35:22;2.80;;;1.60;;
67074;SDS011;53990;50.334;18.640;2023-07-28T12:37:50;3.80;;;2.00;;
67074;SDS011;53990;50.334;18.640;2023-07-28T12:40:18;7.20;;;4.00;;
67074;SDS011;53990;50.334;18.640;2023-07-28T12:42:49;4.70;;;2.90;;
67074;SDS011;53990;50.334;18.640;2023-07-28T12:45:15;3.20;;;1.70;;
67074;SDS011;53990;50.334;18.640;2023-07-28T12:47:42;2.40;;;1.30;;
67074;SDS011;53990;50.334;18.640;2023-07-28T12:50:10;3.30;;;1.30;;
67074;SDS011;53990;50.334;18.640;2023-07-28T12:52:37;4.50;;;1.30;;
67074;SDS011;53990;50.334;18.640;2023-07-28T12:55:04;1.80;;;1.30;;
67074;SDS011;53990;50.334;18.640;2023-07-28T12:57:34;1.90;;;1.40;;
67074;SDS011;53990;50.334;18.640;2023-07-28T13:00:01;2.70;;;1.70;;
67074;SDS011;53990;50.334;18.640;2023-07-28T13:02:27;2.40;;;2.00;;
67074;SDS011;53990;50.334;18.640;2023-07-28T13:04:54;2.90;;;2.30;;
67074;SDS011;53990;50.334;18.640;2023-07-28T13:07:21;2.60;;;2.40;;
67074;SDS011;53990;50.334;18.640;2023-07-28T13:09:48;3.20;;;3.00;;
67074;SDS011;53990;50.334;18.640;2023-07-28T13:12:15;3.40;;;3.00;;
67074;SDS011;53990;50.334;18.640;2023-07-28T13:14:41;3.70;;;3.40;;
67074;SDS011;53990;50.334;18.640;2023-07-28T13:17:08;3.80;;;3.50;;
67074;SDS011;53990;50.334;18.640;2023-07-28T13:19:35;3.70;;;3.50;;
67074;SDS011;53990;50.334;18.640;2023-07-28T13:22:02;4.40;;;4.10;;
67074;SDS011;53990;50.334;18.640;2023-07-28T13:24:36;4.30;;;4.00;;
67074;SDS011;53990;50.334;18.640;2023-07-28T13:27:02;5.00;;;4.70;;
67074;SDS011;53990;50.334;18.640;2023-07-28T13:29:29;5.80;;;5.50;;
67074;SDS011;53990;50.334;18.640;2023-07-28T13:31:58;6.00;;;5.40;;
67074;SDS011;53990;50.334;18.640;2023-07-28T13:34:28;5.90;;;5.50;;
67074;SDS011;53990;50.334;18.640;2023-07-28T13:36:55;5.90;;;5.50;;
67074;SDS011;53990;50.334;18.640;2023-07-28T13:39:23;6.00;;;5.70;;
67074;SDS011;53990;50.334;18.640;2023-07-28T13:41:50;6.20;;;5.70;;
67074;SDS011;53990;50.334;18.640;2023-07-28T13:44:17;5.90;;;5.40;;
67074;SDS011;53990;50.334;18.640;2023-07-28T13:46:44;5.70;;;5.30;;
67074;SDS011;53990;50.334;18.640;2023-07-28T13:49:11;5.70;;;5.20;;
67074;SDS011;53990;50.334;18.640;2023-07-28T13:51:38;5.00;;;4.60;;
67074;SDS011;53990;50.334;18.640;2023-07-28T13:54:07;5.60;;;5.20;;
67074;SDS011;53990;50.334;18.640;2023-07-28T13:59:03;5.60;;;5.20;;
67074;SDS011;53990;50.334;18.640;2023-07-28T14:01:49;6.00;;;5.60;;
67074;SDS011;53990;50.334;18.640;2023-07-28T14:04:16;5.80;;;5.40;;
67074;SDS011;53990;50.334;18.640;2023-07-28T14:06:43;6.20;;;5.40;;
67074;SDS011;53990;50.334;18.640;2023-07-28T14:09:10;5.30;;;4.90;;
67074;SDS011;53990;50.334;18.640;2023-07-28T14:11:37;5.20;;;4.80;;
67074;SDS011;53990;50.334;18.640;2023-07-28T14:14:03;4.60;;;3.90;;
67074;SDS011;53990;50.334;18.640;2023-07-28T14:16:30;3.90;;;3.60;;
67074;SDS011;53990;50.334;18.640;2023-07-28T14:18:57;4.20;;;3.90;;
67074;SDS011;53990;50.334;18.640;2023-07-28T14:25:04;4.10;;;2.90;;
67074;SDS011;53990;50.334;18.640;2023-07-28T14:27:32;6.30;;;3.00;;
67074;SDS011;53990;50.334;18.640;2023-07-28T14:29:58;3.20;;;2.90;;
67074;SDS011;53990;50.334;18.640;2023-07-28T14:32:25;4.10;;;3.70;;
67074;SDS011;53990;50.334;18.640;2023-07-28T14:34:52;3.60;;;2.70;;
67074;SDS011;53990;50.334;18.640;2023-07-28T14:37:19;3.40;;;2.10;;
67074;SDS011;53990;50.334;18.640;2023-07-28T14:39:45;2.30;;;2.10;;
67074;SDS011;53990;50.334;18.640;2023-07-28T14:42:12;3.20;;;2.40;;
67074;SDS011;53990;50.334;18.640;2023-07-28T14:44:39;2.70;;;2.10;;
67074;SDS011;53990;50.334;18.640;2023-07-28T14:47:05;5.10;;;2.10;;
67074;SDS011;53990;50.334;18.640;2023-07-28T14:49:32;3.20;;;2.00;;
67074;SDS011;53990;50.334;18.640;2023-07-28T14:51:59;4.00;;;1.80;;
67074;SDS011;53990;50.334;18.640;2023-07-28T14:54:26;2.50;;;1.60;;
67074;SDS011;53990;50.334;18.640;2023-07-28T14:56:53;2.70;;;1.50;;